createdAt,value
2023-01-09T00:03:14.845Z,85.86
2023-01-09T00:08:14.799Z,84.99
2023-01-09T00:13:14.695Z,84.99
2023-01-09T00:18:14.669Z,84.79
2023-01-09T00:23:14.574Z,84.99
2023-01-09T00:28:14.541Z,83.86
2023-01-09T00:33:14.441Z,83.51
2023-01-09T00:38:14.387Z,84.07
2023-01-09T00:43:14.317Z,84.52
2023-01-09T00:48:14.240Z,85.44
2023-01-09T00:53:14.185Z,84.72
2023-01-09T00:58:14.159Z,85.03
2023-01-09T01:03:14.051Z,84.48
2023-01-09T01:08:13.969Z,84.21
2023-01-09T01:13:13.923Z,84.99
2023-01-09T01:18:13.851Z,83.35
2023-01-09T01:23:13.754Z,83.76
2023-01-09T01:28:13.754Z,84.21
2023-01-09T01:33:13.637Z,84.25
2023-01-09T01:38:13.604Z,86.21
2023-01-09T01:43:13.525Z,84.72
2023-01-09T01:48:13.464Z,83.59
2023-01-09T01:53:13.433Z,84.31
2023-01-09T01:58:13.370Z,83.55
2023-01-09T02:03:13.251Z,83.28
2023-01-09T02:08:13.203Z,82.93
2023-01-09T02:13:13.125Z,82.56
2023-01-09T02:18:13.082Z,82.42
2023-01-09T02:23:12.989Z,82.73
2023-01-09T02:28:12.954Z,82.93
2023-01-09T02:33:12.846Z,83.04
2023-01-09T02:38:12.797Z,82.53
2023-01-09T02:43:12.800Z,82.93
2023-01-09T02:48:12.696Z,82.83
2023-01-09T02:53:12.605Z,82.59
2023-01-09T02:58:12.524Z,83.35
2023-01-09T03:03:12.538Z,83.51
2023-01-09T03:08:12.380Z,83.65
2023-01-09T03:13:12.322Z,84.48
2023-01-09T03:18:12.270Z,85.92
2023-01-09T03:23:12.244Z,86.27
2023-01-09T03:28:12.113Z,86.88
2023-01-09T03:33:12.080Z,87.81
2023-01-09T03:38:12.022Z,88.26
2023-01-09T03:43:11.971Z,88.68
2023-01-09T03:48:11.904Z,87.81
2023-01-09T03:53:11.824Z,88.64
2023-01-09T03:58:11.827Z,88.23
2023-01-09T04:03:11.736Z,89.19
2023-01-09T04:08:11.620Z,88.99
2023-01-09T04:13:11.609Z,89.19
2023-01-09T04:18:11.496Z,88.17
2023-01-09T04:23:11.451Z,88.47
2023-01-09T04:28:11.373Z,88.37
2023-01-09T04:33:11.287Z,87.40
2023-01-09T04:38:11.205Z,88.06
2023-01-09T04:43:11.180Z,88.51
2023-01-09T04:48:11.114Z,89.13
2023-01-09T04:53:11.016Z,88.31
2023-01-09T04:58:10.973Z,89.44
2023-01-09T05:03:10.905Z,89.85
2023-01-09T05:08:10.871Z,89.65
2023-01-09T05:13:10.782Z,89.85
2023-01-09T05:18:10.691Z,90.16
2023-01-09T05:23:10.664Z,90.16
2023-01-09T05:28:10.558Z,89.23
2023-01-09T05:33:10.556Z,89.95
2023-01-09T05:38:10.438Z,89.34
2023-01-09T05:43:10.504Z,89.44
2023-01-09T05:48:10.300Z,89.13
2023-01-09T05:53:10.267Z,88.86
2023-01-09T05:58:10.193Z,89.83
2023-01-09T06:03:10.199Z,90.35
2023-01-09T06:08:10.076Z,89.32
2023-01-09T06:13:10.304Z,89.01
2023-01-09T06:18:09.940Z,88.90
2023-01-09T06:23:11.218Z,88.80
2023-01-09T06:28:09.799Z,88.29
2023-01-09T06:33:09.748Z,87.52
2023-01-09T06:38:09.665Z,87.32
2023-01-09T06:43:09.978Z,86.60
2023-01-09T06:48:09.539Z,87.07
2023-01-09T06:53:09.464Z,86.90
2023-01-09T06:58:09.422Z,86.97
2023-01-09T07:03:09.343Z,85.42
2023-01-09T07:08:09.274Z,86.15
2023-01-09T07:13:09.240Z,85.94
2023-01-09T07:18:09.135Z,85.63
2023-01-09T07:23:09.129Z,85.69
2023-01-09T07:28:09.023Z,84.66
2023-01-09T07:33:08.939Z,84.80
2023-01-09T07:38:08.888Z,85.94
2023-01-09T07:43:08.852Z,84.91
2023-01-09T07:48:08.787Z,85.31
2023-01-09T07:53:08.748Z,84.91
2023-01-09T07:58:08.641Z,85.07
2023-01-09T08:03:08.606Z,84.97
2023-01-09T08:08:08.545Z,85.14
2023-01-09T08:13:08.521Z,84.00
2023-01-09T08:18:08.340Z,84.66
2023-01-09T08:23:08.279Z,84.11
2023-01-09T08:28:08.223Z,84.52
2023-01-09T08:33:08.148Z,83.97
2023-01-09T08:38:08.105Z,84.07
2023-01-09T08:43:08.040Z,82.90
2023-01-09T08:48:07.994Z,83.45
2023-01-09T08:53:07.908Z,84.21
2023-01-09T08:58:07.845Z,84.11
2023-01-09T09:03:07.836Z,84.00
2023-01-09T09:08:07.705Z,84.42
2023-01-09T09:13:07.665Z,83.86
2023-01-09T09:18:07.585Z,83.62
2023-01-09T09:23:07.542Z,83.37
2023-01-09T09:28:07.460Z,83.03
2023-01-09T09:33:07.392Z,82.78
2023-01-09T09:38:07.337Z,82.17
2023-01-09T09:43:07.271Z,84.76
2023-01-09T09:48:07.173Z,84.78
2023-01-09T09:53:07.129Z,84.53
2023-01-09T09:58:07.038Z,83.78
2023-01-09T10:03:07.042Z,83.13
2023-01-09T10:08:15.393Z,83.13
2023-01-09T10:13:07.843Z,83.03
2023-01-09T10:18:06.798Z,83.33
2023-01-09T10:23:06.824Z,83.33
2023-01-09T10:28:06.684Z,84.46
2023-01-09T10:33:06.602Z,83.74
2023-01-09T10:38:06.596Z,84.25
2023-01-09T10:43:06.507Z,85.31
2023-01-09T10:48:06.400Z,86.71
2023-01-09T10:53:06.347Z,85.03
2023-01-09T10:58:06.317Z,83.84
2023-01-09T11:03:06.325Z,84.91
2023-01-09T11:08:06.145Z,84.05
2023-01-09T11:13:06.167Z,84.36
2023-01-09T11:18:06.016Z,82.89
2023-01-09T11:23:05.984Z,82.27
2023-01-09T11:28:05.895Z,80.60
2023-01-09T11:33:05.828Z,78.41
2023-01-09T11:38:05.791Z,78.00
2023-01-09T11:43:05.708Z,78.34
2023-01-09T11:48:05.633Z,76.37
2023-01-09T11:53:05.568Z,74.69
2023-01-09T11:58:05.500Z,75.24
2023-01-09T12:03:12.440Z,74.76
2023-01-09T12:08:05.360Z,74.05
2023-01-09T12:13:05.297Z,74.63
2023-01-09T12:18:05.252Z,73.77
2023-01-09T12:23:05.198Z,71.97
2023-01-09T12:28:05.117Z,73.40
2023-01-09T12:33:05.026Z,74.46
2023-01-09T12:38:04.934Z,74.19
2023-01-09T12:43:04.903Z,75.52
2023-01-09T12:48:04.876Z,76.78
2023-01-09T12:53:04.800Z,75.76
2023-01-09T12:58:04.729Z,76.20
2023-01-09T13:03:12.425Z,76.20
2023-01-09T13:08:05.565Z,76.34
2023-01-09T13:13:04.541Z,78.39
2023-01-09T13:18:04.453Z,75.48
2023-01-09T13:23:04.519Z,77.23
2023-01-09T13:28:04.320Z,74.70
2023-01-09T13:33:04.227Z,75.93
2023-01-09T13:38:04.207Z,75.21
2023-01-09T13:43:04.177Z,76.75
2023-01-09T13:48:04.025Z,74.77
2023-01-09T13:53:04.028Z,74.80
2023-01-09T13:58:03.898Z,76.24
2023-01-09T14:03:03.824Z,76.95
2023-01-09T14:08:03.830Z,75.31
2023-01-09T14:13:03.688Z,76.14
2023-01-09T14:18:03.713Z,77.67
2023-01-09T14:23:28.055Z,76.99
2023-01-09T14:28:04.513Z,77.81
2023-01-09T14:33:03.420Z,77.67
2023-01-09T14:38:03.405Z,76.54
2023-01-09T14:43:03.316Z,76.24
2023-01-09T14:48:03.206Z,76.68
2023-01-09T14:53:03.145Z,77.13
2023-01-09T14:58:03.118Z,78.05
2023-01-09T15:03:03.035Z,76.31
2023-01-09T15:08:02.943Z,77.23
2023-01-09T15:13:02.906Z,77.23
2023-01-09T15:18:02.895Z,76.41
2023-01-09T15:23:02.751Z,76.65
2023-01-09T15:28:02.748Z,78.29
2023-01-09T15:33:02.654Z,79.11
2023-01-09T15:38:02.563Z,77.23
2023-01-09T15:43:02.524Z,77.06
2023-01-09T15:48:02.453Z,79.05
2023-01-09T15:53:02.428Z,79.33
2023-01-09T15:58:02.384Z,81.11
2023-01-09T16:03:02.267Z,81.87
2023-01-09T16:08:02.186Z,83.35
2023-01-09T16:13:02.160Z,83.59
2023-01-09T16:18:02.037Z,83.18
2023-01-09T16:23:02.040Z,83.80
2023-01-09T16:28:01.961Z,83.94
2023-01-09T16:33:01.862Z,84.56
2023-01-09T16:38:01.781Z,85.31
2023-01-09T16:43:02.001Z,86.08
2023-01-09T16:48:01.705Z,86.49
2023-01-09T16:53:01.639Z,86.70
2023-01-09T16:58:01.552Z,86.80
2023-01-09T17:03:01.487Z,86.94
2023-01-09T17:08:01.414Z,87.35
2023-01-09T17:13:01.353Z,86.94
2023-01-09T17:18:01.262Z,87.71
2023-01-09T17:23:01.219Z,87.92
2023-01-09T17:28:01.180Z,87.46
2023-01-09T17:33:01.104Z,86.74
2023-01-09T17:38:01.163Z,86.74
2023-01-09T17:43:00.968Z,87.05
2023-01-09T17:48:00.952Z,87.08
2023-01-09T17:53:01.018Z,86.94
2023-01-09T17:58:00.788Z,87.60
2023-01-09T18:03:00.684Z,88.37
2023-01-09T18:08:00.677Z,88.26
2023-01-09T18:13:00.596Z,88.78
2023-01-09T18:18:00.513Z,88.78
2023-01-09T18:23:00.417Z,88.47
2023-01-09T18:28:00.420Z,87.81
2023-01-09T18:33:00.313Z,87.71
2023-01-09T18:38:00.245Z,86.94
2023-01-09T18:43:00.181Z,87.56
2023-01-09T18:48:00.107Z,87.46
2023-01-09T18:53:00.166Z,86.43
2023-01-09T18:57:59.995Z,85.60
2023-01-09T19:02:59.900Z,85.57
2023-01-09T19:07:59.830Z,84.84
2023-01-09T19:12:59.874Z,84.29
2023-01-09T19:17:59.751Z,83.56
2023-01-09T19:22:59.659Z,82.70
2023-01-09T19:27:59.605Z,82.19
2023-01-09T19:32:59.516Z,82.15
2023-01-09T19:37:59.486Z,82.05
2023-01-09T19:42:59.538Z,82.35
2023-01-09T19:47:59.377Z,82.35
2023-01-09T19:52:59.267Z,81.74
2023-01-09T19:57:59.222Z,82.46
2023-01-09T20:02:59.464Z,84.69
2023-01-09T20:07:59.052Z,85.82
2023-01-09T20:12:59.062Z,84.17
2023-01-09T20:17:58.964Z,82.83
2023-01-09T20:22:59.029Z,84.17
2023-01-09T20:27:59.260Z,82.25
2023-01-09T20:33:00.216Z,84.72
2023-01-09T20:37:58.679Z,83.22
2023-01-09T20:42:58.635Z,83.63
2023-01-09T20:47:58.537Z,82.46
2023-01-09T20:52:58.505Z,82.67
2023-01-09T20:57:58.395Z,85.24
2023-01-09T21:02:58.339Z,83.97
2023-01-09T21:07:58.378Z,82.25
2023-01-09T21:12:58.190Z,82.97
2023-01-09T21:17:58.119Z,84.83
2023-01-09T21:22:58.102Z,83.18
2023-01-09T21:27:58.067Z,83.18
2023-01-09T21:32:57.933Z,81.63
2023-01-09T21:37:57.916Z,82.46
2023-01-09T21:42:57.952Z,82.15
2023-01-09T21:47:58.720Z,83.80
2023-01-09T21:52:57.876Z,82.67
2023-01-09T21:57:57.810Z,82.35
2023-01-09T22:02:57.561Z,81.74
2023-01-09T22:07:57.558Z,81.02
2023-01-09T22:12:57.494Z,81.53
2023-01-09T22:17:57.397Z,81.23
2023-01-09T22:22:57.310Z,81.88
2023-01-09T22:27:57.222Z,82.50
2023-01-09T22:32:57.166Z,83.67
2023-01-09T22:37:57.068Z,83.98
2023-01-09T22:42:57.001Z,84.64
2023-01-09T22:47:56.955Z,85.15
2023-01-09T22:52:56.899Z,85.15
2023-01-09T22:57:56.842Z,85.36
2023-01-09T23:02:56.846Z,85.46
2023-01-09T23:07:56.704Z,85.05
2023-01-09T23:12:56.654Z,85.39
2023-01-09T23:17:56.568Z,86.12
2023-01-09T23:22:58.885Z,85.91
2023-01-09T23:27:56.457Z,86.02
2023-01-09T23:32:56.390Z,85.71
2023-01-09T23:37:56.333Z,85.71
2023-01-09T23:42:56.236Z,85.77
2023-01-09T23:47:56.157Z,85.25
2023-01-09T23:52:56.098Z,84.53
2023-01-09T23:57:56.059Z,84.64
